Time;durP1;ratioP1;P1;durP2;ratioP2;P2;SDS_P1;SDS_P2;PMS_P1;PMS_P2;Temp;Humidity;BMP_temperature;BMP_pressure;BME280_temperature;BME280_humidity;BME280_pressure;Samples;Min_cycle;Max_cycle;Signal;HPM_P1;HPM_P2
2022/05/19 00:01:01;;;;;;;16.57;5.00;;;;;;;;;;20834708;28;20387;-61
2022/05/19 00:11:05;;;;;;;9.18;4.18;;;;;;;;;;20833622;28;20054;-68
2022/05/19 00:21:07;;;;;;;12.45;4.60;;;;;;;;;;20831584;28;20057;-66
2022/05/19 00:31:09;;;;;;;;;;;;;;;;;;20832114;28;20413;-59
2022/05/19 00:41:12;;;;;;;13.40;5.97;;;;;;;;;;20830647;28;20437;-62
2022/05/19 00:51:14;;;;;;;21.33;6.07;;;;;;;;;;20830571;28;20049;-59
2022/05/19 01:01:17;;;;;;;11.93;5.47;;;;;;;;;;20829967;28;20068;-66
2022/05/19 01:11:19;;;;;;;11.55;5.03;;;;;;;;;;20830289;28;20049;-59
2022/05/19 01:21:23;;;;;;;16.60;6.32;;;;;;;;;;20828979;28;20057;-60
2022/05/19 01:31:30;;;;;;;18.23;5.32;;;;;;;;;;20838220;28;20486;-59
2022/05/19 01:41:43;;;;;;;9.48;3.55;;;;;;;;;;20844953;28;20427;-58
2022/05/19 01:51:52;;;;;;;25.33;16.55;;;;;;;;;;20845166;28;20448;-59
2022/05/19 02:02:04;;;;;;;7.55;2.92;;;;;;;;;;20843168;28;20066;-58
2022/05/19 02:12:12;;;;;;;7.30;3.07;;;;;;;;;;20843282;28;20056;-59
2022/05/19 02:22:19;;;;;;;9.10;3.20;;;;;;;;;;20841562;28;20450;-59
2022/05/19 02:32:25;;;;;;;9.75;3.10;;;;;;;;;;20841613;28;20183;-58
2022/05/19 02:42:30;;;;;;;9.23;3.17;;;;;;;;;;20839319;28;20104;-59
2022/05/19 02:52:33;;;;;;;13.23;3.72;;;;;;;;;;20840063;28;20418;-59
2022/05/19 03:02:35;;;;;;;8.63;3.20;;;;;;;;;;20838419;28;20064;-58
2022/05/19 03:12:39;;;;;;;6.20;3.53;;;;;;;;;;20837859;28;20417;-62
2022/05/19 03:22:43;;;;;;;9.20;3.40;;;;;;;;;;20868552;28;20065;-59
2022/05/19 03:32:46;;;;;;;6.57;3.10;;;;;;;;;;20836369;28;20055;-68
2022/05/19 03:42:49;;;;;;;;;;;;;;;;;;20835866;28;20140;-60
2022/05/19 03:52:51;;;;;;;6.83;2.93;;;;;;;;;;20833209;28;20384;-68
2022/05/19 04:02:54;;;;;;;8.75;4.32;;;;;;;;;;20833236;28;20053;-59
2022/05/19 04:12:56;;;;;;;6.43;3.37;;;;;;;;;;20833351;28;20053;-59
2022/05/19 04:22:59;;;;;;;8.93;3.40;;;;;;;;;;20832805;28;20501;-61
2022/05/19 04:33:03;;;;;;;9.32;4.22;;;;;;;;;;20830979;28;20052;-61
2022/05/19 04:43:07;;;;;;;14.13;5.15;;;;;;;;;;20830414;28;20080;-61
2022/05/19 04:53:13;;;;;;;12.38;5.07;;;;;;;;;;20829415;28;20053;-60
2022/05/19 05:03:16;;;;;;;15.00;6.10;;;;;;;;;;20828625;28;20089;-65
2022/05/19 05:13:18;;;;;;;13.05;4.43;;;;;;;;;;20828884;28;20425;-60
2022/05/19 05:23:20;;;;;;;10.47;5.47;;;;;;;;;;20829770;28;20050;-59
2022/05/19 05:33:23;;;;;;;9.68;4.28;;;;;;;;;;20828761;28;20085;-61
2022/05/19 05:43:25;;;;;;;13.07;4.23;;;;;;;;;;20828037;28;20045;-59
2022/05/19 05:53:27;;;;;;;11.55;4.40;;;;;;;;;;20858757;28;20042;-59
2022/05/19 06:03:29;;;;;;;11.80;4.07;;;;;;;;;;20826904;28;20049;-58
2022/05/19 06:13:31;;;;;;;13.90;4.40;;;;;;;;;;20826431;28;20517;-61
2022/05/19 06:23:34;;;;;;;10.57;4.53;;;;;;;;;;20841083;28;20486;-62
2022/05/19 06:33:37;;;;;;;9.75;4.70;;;;;;;;;;20871114;28;20124;-62
2022/05/19 06:43:39;;;;;;;16.20;4.90;;;22.60;45.10;;;;;;20840821;28;20323;-60
2022/05/19 06:53:41;;;;;;;14.40;4.90;;;22.60;45.10;;;;;;20839177;28;20366;-62
2022/05/19 07:03:43;;;;;;;;;;;23.00;43.80;;;;;;20839025;28;20060;-67
2022/05/19 07:13:46;;;;;;;15.48;4.50;;;23.30;42.80;;;;;;20836293;28;19921;-71
2022/05/19 07:23:48;;;;;;;10.48;3.80;;;23.90;41.70;;;;;;20836639;28;20076;-59
2022/05/19 07:33:50;;;;;;;10.23;4.13;;;24.40;40.40;;;;;;20836052;28;20045;-62
2022/05/19 07:43:52;;;;;;;9.40;3.87;;;24.70;40.20;;;;;;20835170;28;20314;-59
2022/05/19 07:53:54;;;;;;;10.40;4.43;;;24.90;39.70;;;;;;20833966;28;20520;-69
2022/05/19 08:03:57;;;;;;;12.68;4.57;;;25.20;39.00;;;;;;20834300;28;20514;-71
2022/05/19 08:24:19;;;;;;;15.38;6.40;;;25.70;38.20;;;;;;20831690;28;20149;-61
2022/05/19 08:34:22;;;;;;;11.35;4.00;;;25.90;38.00;;;;;;20832114;28;20053;-69
2022/05/19 08:44:26;;;;;;;;;;;26.00;38.10;;;;;;20831404;28;20081;-70
2022/05/19 08:54:28;;;;;;;13.35;4.32;;;26.10;37.80;;;;;;20829524;28;20051;-60
2022/05/19 09:05:01;;;;;;;11.93;4.07;;;26.30;37.70;;;;;;20829347;28;20107;-65
2022/05/19 09:15:08;;;;;;;14.20;4.07;;;26.40;37.60;;;;;;20828405;28;20163;-63
2022/05/19 09:25:13;;;;;;;17.38;7.70;;;26.80;37.00;;;;;;20830147;28;20050;-65
2022/05/19 09:35:30;;;;;;;11.05;4.85;;;26.80;37.00;;;;;;20829095;28;20052;-68
2022/05/19 09:45:41;;;;;;;11.40;4.13;;;27.10;36.90;;;;;;20838833;28;20098;-58
2022/05/19 09:55:44;;;;;;;12.37;5.20;;;27.20;37.20;;;;;;20883458;28;20057;-57
2022/05/19 10:05:49;;;;;;;25.23;5.88;;;27.20;37.30;;;;;;20898229;28;20048;-57
2022/05/19 10:15:55;;;;;;;16.35;4.55;;;27.40;37.20;;;;;;20901252;28;20037;-59
2022/05/19 10:26:15;;;;;;;15.05;4.75;;;27.50;37.00;;;;;;20861525;28;20099;-56
2022/05/19 10:36:31;;;;;;;11.68;4.50;;;27.60;37.30;;;;;;20911756;28;20049;-56
2022/05/19 10:47:01;;;;;;;11.38;4.28;;;28.00;36.40;;;;;;20953065;28;20041;-58
2022/05/19 10:57:46;;;;;;;12.85;5.45;;;28.10;36.50;;;;;;20881575;28;20061;-62
2022/05/19 11:07:56;;;;;;;16.50;4.82;;;28.30;36.40;;;;;;20839342;28;20116;-56
2022/05/19 11:18:16;;;;;;;13.63;4.00;;;28.70;35.70;;;;;;20836952;28;20049;-58
2022/05/19 11:28:49;;;;;;;9.17;4.90;;;28.90;35.30;;;;;;20835941;28;20144;-56
2022/05/19 11:39:11;;;;;;;12.70;4.18;;;28.90;35.30;;;;;;20835019;28;20084;-57
2022/05/19 11:59:37;;;;;;;12.73;4.10;;;29.40;34.30;;;;;;20891025;28;20052;-67
2022/05/19 12:09:53;;;;;;;14.50;4.60;;;29.90;32.80;;;;;;20916770;28;20535;-69
2022/05/19 12:19:56;;;;;;;11.57;4.00;;;30.30;32.20;;;;;;20915303;28;20110;-70
2022/05/19 12:31:56;;;;;;;10.57;4.30;;;30.40;32.00;;;;;;20914702;28;20063;-65
2022/05/19 12:40:43;;;;;;;11.45;4.00;;;30.60;31.90;;;;;;20912882;28;20049;-66
2022/05/19 12:50:47;;;;;;;13.07;4.30;;;30.90;29.20;;;;;;20913732;28;20461;-66
2022/05/19 13:00:49;;;;;;;15.27;3.70;;;31.20;28.40;;;;;;20911745;28;20099;-67
2022/05/19 13:10:51;;;;;;;15.23;4.20;;;31.40;27.80;;;;;;20897304;28;20147;-68
2022/05/19 13:21:12;;;;;;;11.98;4.13;;;31.60;28.00;;;;;;20909789;28;20060;-69
2022/05/19 13:31:22;;;;;;;13.93;3.63;;;31.60;28.30;;;;;;20913569;28;20383;-69
2022/05/19 13:41:23;;;;;;;12.32;3.60;;;31.80;27.80;;;;;;20908917;28;20059;-66
2022/05/19 13:51:32;;;;;;;9.38;3.30;;;31.90;26.80;;;;;;20924831;28;20055;-68
2022/05/19 14:01:37;;;;;;;14.10;3.78;;;32.20;26.50;;;;;;20925364;28;20053;-59
2022/05/19 14:11:39;;;;;;;12.02;3.53;;;32.30;26.60;;;;;;20924608;28;20045;-68
2022/05/19 14:21:43;;;;;;;14.68;4.25;;;32.40;25.70;;;;;;20924193;28;20108;-58
2022/05/19 14:31:44;;;;;;;15.18;4.50;;;32.60;24.70;;;;;;20923313;28;20107;-60
2022/05/19 14:52:08;;;;;;;16.52;3.88;;;32.90;24.00;;;;;;20922259;28;20437;-60
2022/05/19 15:02:10;;;;;;;10.82;3.40;;;33.10;23.10;;;;;;20920906;28;20056;-58
2022/05/19 15:12:11;;;;;;;17.05;3.78;;;33.10;22.50;;;;;;20920619;28;20053;-69
2022/05/19 15:22:14;;;;;;;9.70;4.15;;;33.30;21.90;;;;;;20919931;28;20482;-64
2022/05/19 15:32:16;;;;;;;21.50;9.35;;;33.40;22.00;;;;;;20919119;28;20045;-70
2022/05/19 15:42:19;;;;;;;16.58;4.80;;;33.40;21.60;;;;;;20918055;28;20413;-69
2022/05/19 15:52:21;;;;;;;18.42;4.03;;;33.40;21.40;;;;;;20912905;28;20559;-65
2022/05/19 16:02:35;;;;;;;13.63;4.00;;;33.30;21.40;;;;;;20991119;28;20091;-58
2022/05/19 16:12:37;;;;;;;13.75;4.90;;;33.30;21.50;;;;;;20997935;28;20539;-57
2022/05/19 16:22:43;;;;;;;12.23;4.28;;;32.80;21.70;;;;;;20996623;28;20048;-59
2022/05/19 16:32:44;;;;;;;12.55;3.65;;;32.90;21.40;;;;;;20995774;28;20475;-61
2022/05/19 16:42:46;;;;;;;15.80;4.05;;;32.60;21.40;;;;;;20995982;28;20457;-63
2022/05/19 16:52:47;;;;;;;13.50;4.68;;;32.90;20.70;;;;;;20994441;28;20041;-60
2022/05/19 17:02:49;;;;;;;15.50;3.80;;;33.10;20.70;;;;;;20953061;28;20088;-61
2022/05/19 17:12:54;;;;;;;14.00;4.35;;;33.10;20.70;;;;;;20946674;28;20048;-60
2022/05/19 17:22:55;;;;;;;11.93;4.35;;;33.00;20.40;;;;;;20932211;28;20140;-57
2022/05/19 17:32:58;;;;;;;14.18;4.05;;;33.20;21.20;;;;;;20910399;28;20049;-56
2022/05/19 17:42:59;;;;;;;13.45;3.38;;;33.20;20.70;;;;;;20886153;28;20355;-58
2022/05/19 17:53:01;;;;;;;13.15;3.28;;;33.10;21.70;;;;;;20934783;28;20041;-63
2022/05/19 18:03:03;;;;;;;14.57;4.03;;;32.80;22.30;;;;;;20867195;28;20127;-61
2022/05/19 18:13:04;;;;;;;10.88;3.15;;;32.60;22.70;;;;;;20834093;28;20417;-61
2022/05/19 18:23:06;;;;;;;13.00;3.60;;;32.40;23.40;;;;;;20864101;28;20053;-59
2022/05/19 18:33:09;;;;;;;11.68;3.33;;;32.10;23.90;;;;;;21005635;28;20045;-57
2022/05/19 18:53:32;;;;;;;14.07;3.60;;;31.60;23.80;;;;;;20998831;28;20455;-57
2022/05/19 19:03:34;;;;;;;14.40;3.80;;;31.30;24.20;;;;;;21003036;28;20353;-58
2022/05/19 19:13:38;;;;;;;11.68;4.00;;;31.10;24.60;;;;;;21002217;28;20477;-58
2022/05/19 19:23:39;;;;;;;13.10;4.63;;;30.80;24.90;;;;;;21001632;28;20053;-59
2022/05/19 19:33:41;;;;;;;14.88;3.58;;;30.60;25.50;;;;;;21001913;28;20059;-62
2022/05/19 19:43:43;;;;;;;12.75;4.95;;;30.20;25.40;;;;;;21000559;28;20455;-62
2022/05/19 19:53:45;;;;;;;12.48;3.72;;;30.00;25.40;;;;;;21000074;28;20192;-61
2022/05/19 20:03:47;;;;;;;13.13;4.32;;;29.80;25.50;;;;;;20997709;28;20131;-60
2022/05/19 20:13:49;;;;;;;14.50;3.67;;;29.60;25.60;;;;;;20998630;28;20044;-64
2022/05/19 20:23:51;;;;;;;12.95;3.55;;;29.40;25.70;;;;;;20996648;28;20059;-64
2022/05/19 20:33:53;;;;;;;15.07;4.25;;;29.40;25.40;;;;;;20997102;28;20040;-64
2022/05/19 20:43:55;;;;;;;14.18;3.30;;;29.30;25.70;;;;;;20997216;28;20105;-65
2022/05/19 20:53:57;;;;;;;10.82;3.38;;;29.10;26.10;;;;;;20996296;28;20146;-63
2022/05/19 21:03:58;;;;;;;11.77;4.40;;;28.90;26.30;;;;;;20995479;28;20177;-67
2022/05/19 21:14:01;;;;;;;14.60;5.60;;;28.90;26.60;;;;;;20995290;28;20098;-65
2022/05/19 21:34:26;;;;;;;14.80;3.90;;;28.60;29.20;;;;;;20995209;28;20053;-64
2022/05/19 21:44:28;;;;;;;16.33;4.30;;;28.40;30.90;;;;;;20995228;28;20052;-63
2022/05/19 22:04:52;;;;;;;13.60;4.60;;;27.90;32.30;;;;;;21010632;28;20485;-64
2022/05/19 22:14:54;;;;;;;16.58;4.30;;;27.80;32.50;;;;;;21008624;28;20784;-66
2022/05/19 22:24:56;;;;;;;10.57;3.90;;;27.70;32.60;;;;;;21007234;28;20088;-65
2022/05/19 22:34:58;;;;;;;13.30;4.18;;;27.60;32.80;;;;;;21006631;28;20076;-62
2022/05/19 22:45:00;;;;;;;11.25;5.07;;;27.40;32.70;;;;;;21006841;28;20101;-64
2022/05/19 22:55:02;;;;;;;11.07;3.65;;;27.30;32.80;;;;;;21004372;28;20135;-65
2022/05/19 23:05:05;;;;;;;11.18;3.25;;;27.10;32.80;;;;;;21003999;28;20154;-64
2022/05/19 23:15:09;;;;;;;11.82;4.05;;;26.90;33.20;;;;;;21003081;28;20060;-64
2022/05/19 23:25:12;;;;;;;11.05;3.83;;;26.70;33.50;;;;;;21002439;28;20048;-62
2022/05/19 23:35:13;;;;;;;9.93;3.35;;;26.60;33.60;;;;;;21001656;28;20053;-65
2022/05/19 23:45:15;;;;;;;10.15;3.75;;;26.60;33.60;;;;;;21001091;28;20057;-65
2022/05/19 23:55:16;;;;;;;15.18;3.28;;;26.50;33.70;;;;;;21000122;28;20413;-64
